CheckWX is a tool to help pilots better visualize weather data.  It is not intended as a substitute for an official pre-flight weather briefing.

04:01:12 UTC

KBIX METAR
Keesler AFB Airport
Biloxi, Mississippi, USA
Current

5 mins ago

KBIX 250356Z AUTO 16007KT 10SM CLR 22/20 A2993 RMK AO2 SLP138 T02170201
Observed
Apr-25 @ 03:56 UTC
Wind
  • 160° at 7 KTS
Visibility
10 SM
Flight Rules
VFR
Cloud Levels
  • Clear skies
Temperature
22°C / 72°F
Dewpoint
20°C / 68°F
Humidity
88%
Altimeter
29.93" Hg
Pressure
1013.52 hPa
Previous

1 hour ago

KBIX 250256Z AUTO 16005KT 10SM CLR 22/21 A2993 RMK AO2 SLP138 T02170205 55001
Observed
Apr-25 @ 02:56 UTC
Wind
  • 160° at 5 KTS
Visibility
10 SM
Flight Rules
VFR
Cloud Levels
  • Clear skies
Temperature
22°C / 72°F
Dewpoint
21°C / 70°F
Humidity
94%
Altimeter
29.93" Hg
Pressure
1013.52 hPa
Previous

2 hours ago

KBIX 250156Z AUTO 16008KT 10SM FEW007 22/21 A2992 RMK AO2 SLP135 T02180208
Observed
Apr-25 @ 01:56 UTC
Wind
  • 160° at 8 KTS
Visibility
10 SM
Flight Rules
VFR
Cloud Levels
  • Few at 700' AGL
Temperature
22°C / 72°F
Dewpoint
21°C / 70°F
Humidity
94%
Altimeter
29.92" Hg
Pressure
1013.22 hPa